Time;durP1;ratioP1;P1;durP2;ratioP2;P2;SDS_P1;SDS_P2;PMS_P1;PMS_P2;Temp;Humidity;BMP_temperature;BMP_pressure;BME280_temperature;BME280_humidity;BME280_pressure;Samples;Min_cycle;Max_cycle;Signal;HPM_P1;HPM_P2
2021/03/12 00:00:44;;;;;;;10.07;2.17;;;;;;;;;;5036994;28;20805;-59
2021/03/12 00:03:13;;;;;;;18.35;4.07;;;;;;;;;;5037417;28;20068;-58
2021/03/12 00:05:59;;;;;;;25.70;3.28;;;;;;;;;;5037844;28;20060;-58
2021/03/12 00:08:30;;;;;;;12.98;2.35;;;;;;;;;;5037353;28;20040;-60
2021/03/12 00:10:57;;;;;;;11.38;2.30;;;;;;;;;;5037537;28;20079;-58
2021/03/12 00:13:24;;;;;;;9.93;2.03;;;;;;;;;;5037196;28;21832;-59
2021/03/12 00:15:50;;;;;;;7.35;2.15;;;;;;;;;;5038162;28;20067;-59
2021/03/12 00:18:17;;;;;;;12.18;1.98;;;;;;;;;;5037327;28;20040;-57
2021/03/12 00:20:43;;;;;;;14.82;2.50;;;;;;;;;;5037316;28;20107;-57
2021/03/12 00:23:09;;;;;;;13.10;2.22;;;;;;;;;;5038242;28;20052;-58
2021/03/12 00:25:45;;;;;;;10.43;2.15;;;;;;;;;;5037211;28;20037;-58
2021/03/12 00:28:12;;;;;;;15.15;1.83;;;;;;;;;;5034801;28;20128;-57
2021/03/12 00:30:39;;;;;;;17.30;2.80;;;;;;;;;;5035772;28;20347;-57
2021/03/12 00:33:05;;;;;;;15.10;2.20;;;;;;;;;;5036138;28;20083;-57
2021/03/12 00:35:32;;;;;;;20.00;2.40;;;;;;;;;;5036603;28;20393;-58
2021/03/12 00:37:58;;;;;;;11.45;2.10;;;;;;;;;;5035823;28;20621;-59
2021/03/12 00:40:25;;;;;;;12.45;1.85;;;;;;;;;;5034999;28;20512;-59
2021/03/12 00:42:52;;;;;;;8.32;1.70;;;;;;;;;;5035780;28;20041;-58
2021/03/12 00:45:19;;;;;;;9.80;1.77;;;;;;;;;;5037852;28;20055;-58
2021/03/12 00:47:45;;;;;;;11.80;1.60;;;;;;;;;;5034399;28;20467;-58
2021/03/12 00:50:12;;;;;;;15.13;2.00;;;;;;;;;;5037939;28;20052;-56
2021/03/12 00:52:38;;;;;;;16.05;2.22;;;;;;;;;;5034934;28;21097;-53
2021/03/12 00:55:06;;;;;;;15.43;3.28;;;;;;;;;;5031085;28;20037;-58
2021/03/12 00:57:31;;;;;;;12.02;2.10;;;;;;;;;;5034755;28;20037;-56
2021/03/12 00:59:57;;;;;;;19.98;2.63;;;;;;;;;;5034964;28;20037;-57
2021/03/12 01:02:23;;;;;;;18.52;2.33;;;;;;;;;;5036056;28;20049;-57
2021/03/12 01:04:49;;;;;;;9.98;2.13;;;;;;;;;;5034650;28;20033;-55
2021/03/12 01:07:15;;;;;;;11.40;2.30;;;;;;;;;;5034645;28;20049;-56
2021/03/12 01:09:41;;;;;;;14.05;2.25;;;;;;;;;;5032444;28;20792;-55
2021/03/12 01:12:07;;;;;;;15.57;2.10;;;;;;;;;;5033896;28;20049;-56
2021/03/12 01:14:33;;;;;;;15.25;2.20;;;;;;;;;;5031218;28;20041;-57
2021/03/12 01:16:59;;;;;;;20.23;2.72;;;;;;;;;;5035260;28;20055;-56
2021/03/12 01:19:25;;;;;;;15.18;2.30;;;;;;;;;;5033888;28;20498;-57
2021/03/12 01:21:51;;;;;;;18.95;2.63;;;;;;;;;;5034061;28;20136;-58
2021/03/12 01:24:17;;;;;;;13.88;4.07;;;;;;;;;;5033218;28;20604;-58
2021/03/12 01:26:43;;;;;;;22.17;4.05;;;;;;;;;;5033516;28;20037;-57
2021/03/12 01:29:09;;;;;;;22.20;3.05;;;;;;;;;;5035207;28;20049;-57
2021/03/12 01:31:35;;;;;;;22.63;2.67;;;;;;;;;;5032619;28;20041;-57
2021/03/12 01:34:01;;;;;;;18.38;2.65;;;;;;;;;;5033417;28;20051;-54
2021/03/12 01:36:26;;;;;;;16.80;2.75;;;;;;;;;;5032826;28;20036;-55
2021/03/12 01:38:52;;;;;;;11.80;2.60;;;;;;;;;;5033534;28;20041;-57
2021/03/12 01:41:18;;;;;;;19.35;2.38;;;;;;;;;;5032067;28;20448;-56
2021/03/12 01:43:44;;;;;;;21.52;2.70;;;;;;;;;;5032619;28;20074;-56
2021/03/12 01:46:10;;;;;;;18.80;2.92;;;;;;;;;;5032425;28;20045;-57
2021/03/12 01:48:36;;;;;;;28.77;3.67;;;;;;;;;;5032091;28;20063;-55
2021/03/12 01:51:04;;;;;;;24.25;3.20;;;;;;;;;;5033192;28;20517;-56
2021/03/12 01:53:31;;;;;;;29.67;3.40;;;;;;;;;;5032697;28;20064;-56
2021/03/12 01:55:57;;;;;;;18.00;2.65;;;;;;;;;;5034082;28;20041;-56
2021/03/12 01:58:24;;;;;;;20.45;3.22;;;;;;;;;;5032646;28;20033;-55
2021/03/12 02:00:50;;;;;;;15.98;2.85;;;;;;;;;;5034259;28;20049;-56
2021/03/12 02:03:19;;;;;;;15.88;2.90;;;;;;;;;;5034601;28;20164;-56
2021/03/12 02:05:45;;;;;;;8.38;2.42;;;;;;;;;;5032272;28;20049;-56
2021/03/12 02:08:10;;;;;;;19.77;3.17;;;;;;;;;;5030443;28;20033;-57
2021/03/12 02:10:36;;;;;;;16.25;2.72;;;;;;;;;;5032066;28;20038;-57
2021/03/12 02:13:21;;;;;;;19.08;2.83;;;;;;;;;;5033530;28;20651;-54
2021/03/12 02:15:54;;;;;;;20.85;3.22;;;;;;;;;;5034232;28;20043;-57
2021/03/12 02:18:23;;;;;;;25.00;3.67;;;;;;;;;;5031901;28;20122;-57
2021/03/12 02:21:01;;;;;;;8.77;2.92;;;;;;;;;;5033209;28;20579;-57
2021/03/12 02:23:39;;;;;;;14.57;2.67;;;;;;;;;;5031310;28;20044;-58
2021/03/12 02:26:24;;;;;;;20.10;3.47;;;;;;;;;;5031580;28;20034;-58
2021/03/12 02:28:51;;;;;;;19.77;3.58;;;;;;;;;;5031902;28;20039;-58
2021/03/12 02:31:17;;;;;;;17.60;2.97;;;;;;;;;;5040332;28;20070;-58
2021/03/12 02:33:44;;;;;;;17.10;3.45;;;;;;;;;;5031837;28;20037;-57
2021/03/12 02:36:10;;;;;;;19.52;3.45;;;;;;;;;;5032654;28;20036;-57
2021/03/12 02:38:36;;;;;;;24.00;4.13;;;;;;;;;;5030360;28;20039;-58
2021/03/12 02:41:04;;;;;;;25.10;4.50;;;;;;;;;;5031179;28;20112;-56
2021/03/12 02:43:30;;;;;;;23.02;3.90;;;;;;;;;;5031763;28;20498;-59
2021/03/12 02:45:57;;;;;;;20.92;4.72;;;;;;;;;;5031943;28;20167;-56
2021/03/12 02:48:23;;;;;;;22.80;5.13;;;;;;;;;;5031343;28;20033;-56
2021/03/12 02:50:49;;;;;;;14.95;3.60;;;;;;;;;;5030889;28;20041;-57
2021/03/12 02:53:15;;;;;;;18.15;4.00;;;;;;;;;;5043820;28;20068;-58
2021/03/12 02:55:42;;;;;;;18.65;3.83;;;;;;;;;;5032226;28;20053;-58
2021/03/12 02:58:09;;;;;;;12.77;3.60;;;;;;;;;;5032287;28;20041;-57
2021/03/12 03:00:35;;;;;;;17.23;3.72;;;;;;;;;;5031580;28;20052;-54
2021/03/12 03:03:02;;;;;;;15.57;3.65;;;;;;;;;;5033782;28;20041;-56
2021/03/12 03:05:29;;;;;;;14.88;3.95;;;;;;;;;;5031297;28;20030;-57
2021/03/12 03:07:55;;;;;;;14.35;3.97;;;;;;;;;;5033162;28;20510;-57
2021/03/12 03:10:22;;;;;;;15.70;4.30;;;;;;;;;;5032733;28;20178;-56
2021/03/12 03:12:49;;;;;;;16.38;4.57;;;;;;;;;;5032967;28;20152;-56
2021/03/12 03:15:16;;;;;;;17.70;4.43;;;;;;;;;;5047408;28;20064;-57
2021/03/12 03:17:42;;;;;;;14.32;4.15;;;;;;;;;;5026465;28;20110;-55
2021/03/12 03:20:14;;;;;;;17.75;3.47;;;;;;;;;;5032912;28;20040;-56
2021/03/12 03:22:40;;;;;;;19.58;3.65;;;;;;;;;;5031026;28;20056;-55
2021/03/12 03:25:07;;;;;;;13.48;3.83;;;;;;;;;;5032313;28;20041;-57
2021/03/12 03:27:34;;;;;;;10.48;2.85;;;;;;;;;;5034201;28;20052;-55
2021/03/12 03:29:59;;;;;;;17.52;2.67;;;;;;;;;;5034554;28;20033;-58
2021/03/12 03:32:25;;;;;;;12.10;2.45;;;;;;;;;;5036513;28;20498;-54
2021/03/12 03:34:51;;;;;;;10.15;2.58;;;;;;;;;;5037938;28;20131;-56
2021/03/12 03:37:23;;;;;;;10.57;3.10;;;;;;;;;;5037631;28;20250;-57
2021/03/12 03:39:49;;;;;;;16.55;4.53;;;;;;;;;;5034937;28;20089;-56
2021/03/12 03:42:17;;;;;;;20.67;3.33;;;;;;;;;;5031853;28;20845;-54
2021/03/12 03:44:43;;;;;;;8.88;2.67;;;;;;;;;;5023469;28;20041;-57
2021/03/12 03:47:10;;;;;;;15.75;2.97;;;;;;;;;;5032693;28;20069;-58
2021/03/12 03:49:36;;;;;;;14.50;3.20;;;;;;;;;;5029844;28;20037;-57
2021/03/12 03:52:04;;;;;;;20.33;3.25;;;;;;;;;;5035740;28;20041;-58
2021/03/12 03:54:30;;;;;;;17.52;3.83;;;;;;;;;;5033930;28;20084;-56
2021/03/12 03:56:57;;;;;;;14.52;2.70;;;;;;;;;;5034486;28;20037;-55
2021/03/12 03:59:23;;;;;;;17.42;4.07;;;;;;;;;;5027599;28;22055;-55
2021/03/12 04:01:49;;;;;;;17.30;3.20;;;;;;;;;;5035297;28;20053;-57
2021/03/12 04:04:15;;;;;;;17.73;3.55;;;;;;;;;;5034578;28;20085;-57
2021/03/12 04:06:42;;;;;;;14.57;3.53;;;;;;;;;;5034082;28;20044;-56
2021/03/12 04:09:11;;;;;;;14.32;3.50;;;;;;;;;;5034727;28;20033;-56
2021/03/12 04:11:37;;;;;;;11.50;3.30;;;;;;;;;;5032054;28;20033;-57
2021/03/12 04:14:04;;;;;;;13.93;3.38;;;;;;;;;;5031213;28;20045;-57
2021/03/12 04:16:30;;;;;;;11.43;4.55;;;;;;;;;;5033615;28;20085;-57
2021/03/12 04:18:57;;;;;;;16.45;3.22;;;;;;;;;;5031957;28;20037;-56
2021/03/12 04:21:24;;;;;;;17.33;2.90;;;;;;;;;;5032366;28;20045;-56
2021/03/12 04:23:51;;;;;;;12.00;2.70;;;;;;;;;;5042117;28;20722;-59
2021/03/12 04:26:17;;;;;;;14.93;2.70;;;;;;;;;;5032895;28;20076;-56
2021/03/12 04:28:43;;;;;;;14.75;3.22;;;;;;;;;;5031489;28;20494;-57
2021/03/12 04:31:09;;;;;;;13.63;2.80;;;;;;;;;;5033714;28;20052;-58
2021/03/12 04:33:39;;;;;;;11.30;2.25;;;;;;;;;;5030615;28;20037;-58
2021/03/12 04:36:05;;;;;;;12.52;2.53;;;;;;;;;;5031250;28;20512;-57
2021/03/12 04:38:32;;;;;;;10.07;2.58;;;;;;;;;;5031358;28;20119;-57
2021/03/12 04:40:58;;;;;;;16.20;2.60;;;;;;;;;;5031288;28;20063;-55
2021/03/12 04:43:25;;;;;;;17.00;3.33;;;;;;;;;;5030261;28;20037;-57
2021/03/12 04:45:51;;;;;;;11.75;3.33;;;;;;;;;;5030654;28;20034;-55
2021/03/12 04:48:17;;;;;;;11.80;2.97;;;;;;;;;;5031410;28;20041;-55
2021/03/12 04:50:44;;;;;;;14.70;3.65;;;;;;;;;;5031583;28;20383;-55
2021/03/12 04:53:10;;;;;;;12.07;3.15;;;;;;;;;;5033001;28;20049;-57
2021/03/12 04:55:36;;;;;;;19.25;3.08;;;;;;;;;;5031017;28;20619;-57
2021/03/12 04:58:03;;;;;;;17.35;2.50;;;;;;;;;;5032150;28;20211;-58
2021/03/12 05:00:31;;;;;;;14.70;3.28;;;;;;;;;;5032117;28;20115;-57
2021/03/12 05:02:57;;;;;;;13.00;2.92;;;;;;;;;;5027616;28;20049;-55
2021/03/12 05:05:23;;;;;;;15.32;3.50;;;;;;;;;;5032371;28;20156;-57
2021/03/12 05:07:50;;;;;;;12.90;4.22;;;;;;;;;;5033194;28;20037;-57
2021/03/12 05:10:17;;;;;;;17.70;3.08;;;;;;;;;;5032522;28;20040;-56
2021/03/12 05:12:43;;;;;;;17.55;3.58;;;;;;;;;;5032131;28;20486;-57
2021/03/12 05:15:09;;;;;;;14.70;3.97;;;;;;;;;;5033430;28;20052;-57
2021/03/12 05:17:35;;;;;;;15.30;3.78;;;;;;;;;;5030643;28;20033;-57
2021/03/12 05:20:01;;;;;;;13.35;3.20;;;;;;;;;;5034520;28;20474;-58
2021/03/12 05:22:27;;;;;;;12.35;3.70;;;;;;;;;;5033956;28;20052;-56
2021/03/12 05:24:53;;;;;;;15.15;3.80;;;;;;;;;;5033413;28;20043;-57
2021/03/12 05:27:18;;;;;;;15.52;3.38;;;;;;;;;;5030135;28;20472;-58
2021/03/12 05:29:44;;;;;;;10.98;3.35;;;;;;;;;;5031742;28;20040;-55
2021/03/12 05:32:10;;;;;;;12.77;3.30;;;;;;;;;;5033740;28;20068;-57
2021/03/12 05:34:36;;;;;;;21.10;3.78;;;;;;;;;;5030660;28;20131;-56
2021/03/12 05:37:02;;;;;;;22.80;3.80;;;;;;;;;;5044964;28;20051;-56
2021/03/12 05:39:28;;;;;;;17.00;3.97;;;;;;;;;;5031279;28;22119;-57
2021/03/12 05:41:54;;;;;;;22.90;3.75;;;;;;;;;;5034174;28;20114;-58
2021/03/12 05:44:20;;;;;;;20.38;3.90;;;;;;;;;;5034705;28;20037;-57
2021/03/12 05:46:46;;;;;;;22.23;3.80;;;;;;;;;;5028106;28;20063;-56
2021/03/12 05:49:17;;;;;;;18.27;3.67;;;;;;;;;;5034129;28;20041;-54
2021/03/12 05:51:43;;;;;;;9.52;3.22;;;;;;;;;;5033572;28;20071;-56
2021/03/12 05:54:09;;;;;;;16.08;3.42;;;;;;;;;;5034854;28;20033;-57
2021/03/12 05:56:35;;;;;;;12.13;2.92;;;;;;;;;;5033277;28;20068;-57
2021/03/12 05:59:04;;;;;;;17.58;3.65;;;;;;;;;;5031934;28;20060;-57
2021/03/12 06:01:31;;;;;;;11.80;3.10;;;;;;;;;;5031052;28;20457;-56
2021/03/12 06:03:57;;;;;;;15.00;2.92;;;;;;;;;;5033736;28;20044;-55
2021/03/12 06:06:23;;;;;;;15.70;4.35;;;;;;;;;;5033613;28;20041;-56
2021/03/12 06:08:49;;;;;;;15.40;4.10;;;;;;;;;;5033289;28;20059;-56
2021/03/12 06:11:15;;;;;;;17.63;3.10;;;;;;;;;;5032732;28;20045;-56
2021/03/12 06:13:47;;;;;;;14.10;3.30;;;;;;;;;;5030974;28;20132;-55
2021/03/12 06:16:24;;;;;;;16.10;3.75;;;;;;;;;;5031800;28;20120;-56
2021/03/12 06:19:08;;;;;;;12.68;3.90;;;;;;;;;;5030840;28;20515;-57
2021/03/12 06:21:34;;;;;;;16.30;3.22;;;;;;;;;;5033114;28;20551;-56
2021/03/12 06:24:03;;;;;;;11.73;3.90;;;;;;;;;;5032735;28;20291;-57
2021/03/12 06:26:45;;;;;;;20.15;3.80;;;;;;;;;;5031799;28;20273;-57
2021/03/12 06:29:11;;;;;;;18.02;3.38;;;;;;;;;;5032154;28;20100;-54
2021/03/12 06:31:37;;;;;;;21.48;3.55;;;;;;;;;;5031840;28;20124;-57
2021/03/12 06:34:09;;;;;;;14.30;3.33;;;;;;;;;;5034004;28;20055;-53
2021/03/12 06:36:35;;;;;;;27.10;4.07;;;;;;;;;;5031312;28;20490;-56
2021/03/12 06:39:01;;;;;;;14.52;3.03;;;;;;;;;;5033428;28;20041;-57
2021/03/12 06:41:40;;;;;;;16.75;3.67;;;;;;;;;;5033160;28;20041;-57
2021/03/12 06:44:25;;;;;;;18.35;3.53;;;;;;;;;;5027833;28;20037;-54
2021/03/12 06:46:50;;;;;;;10.23;2.90;;;;;;;;;;5031768;28;20182;-55
2021/03/12 06:49:16;;;;;;;11.85;2.70;;;;;;;;;;5032261;28;20052;-56
2021/03/12 06:51:53;;;;;;;13.70;3.28;;;;;;;;;;5034635;28;20052;-56
2021/03/12 06:54:19;;;;;;;11.10;2.70;;;;;;;;;;5031267;28;20037;-56
2021/03/12 06:56:45;;;;;;;14.40;3.03;;;;;;;;;;5033844;28;20103;-57
2021/03/12 06:59:11;;;;;;;10.95;2.95;;;;;;;;;;5033001;28;20029;-55
2021/03/12 07:01:37;;;;;;;10.52;2.60;;;;;;;;;;5034547;28;20152;-55
2021/03/12 07:04:13;;;;;;;9.73;2.65;;;;;;;;;;5038033;28;20879;-55
2021/03/12 07:06:43;;;;;;;10.25;3.08;;;;;;;;;;5035689;28;20044;-55
2021/03/12 07:09:09;;;;;;;12.52;2.30;;;;;;;;;;5036378;28;20151;-57
2021/03/12 07:11:34;;;;;;;15.73;2.80;;;;;;;;;;5035991;28;20028;-57
2021/03/12 07:14:00;;;;;;;8.43;2.75;;;;;;;;;;5038911;28;20041;-57
2021/03/12 07:16:27;;;;;;;10.43;2.60;;;;;;;;;;5036501;28;20040;-57
2021/03/12 07:18:54;;;;;;;12.50;3.20;;;;;;;;;;5035735;28;20037;-55
2021/03/12 07:21:27;;;;;;;8.43;2.50;;;;;;;;;;5035391;28;20049;-55
2021/03/12 07:23:58;;;;;;;8.45;2.30;;;;;;;;;;5035760;28;20045;-53
2021/03/12 07:26:24;;;;;;;5.75;2.63;;;;;;;;;;5034537;28;20041;-56
2021/03/12 07:28:53;;;;;;;9.70;3.05;;;;;;;;;;5036022;28;20075;-55
2021/03/12 07:31:19;;;;;;;10.98;2.13;;;;;;;;;;5035050;28;20039;-54
2021/03/12 07:33:52;;;;;;;7.30;2.50;;;;;;;;;;5037158;28;20403;-57
2021/03/12 07:36:23;;;;;;;15.10;2.43;;;;;;;;;;5036822;28;20095;-51
2021/03/12 07:38:50;;;;;;;12.63;2.63;;;;;;;;;;5037617;28;20029;-56
2021/03/12 07:41:16;;;;;;;7.25;2.30;;;;;;;;;;5038424;28;20432;-56
2021/03/12 07:43:43;;;;;;;10.77;1.95;;;;;;;;;;5035779;28;20037;-55
2021/03/12 07:46:12;;;;;;;7.80;2.20;;;;;;;;;;5037927;28;20033;-54
2021/03/12 07:48:38;;;;;;;10.63;2.13;;;;;;;;;;5036381;28;20087;-56
2021/03/12 07:51:04;;;;;;;11.55;2.00;;;;;;;;;;5037675;28;20049;-55
2021/03/12 07:53:45;;;;;;;15.90;2.13;;;;;;;;;;5035810;28;20128;-57
2021/03/12 07:56:12;;;;;;;10.75;2.20;;;;;;;;;;5036076;28;20068;-57
2021/03/12 07:59:01;;;;;;;12.38;2.95;;;;;;;;;;5034908;28;20126;-55
2021/03/12 08:01:27;;;;;;;7.30;2.20;;;;;;;;;;5031909;28;20063;-56
2021/03/12 08:03:54;;;;;;;10.77;2.28;;;;;;;;;;5036715;28;20045;-54
2021/03/12 08:06:20;;;;;;;12.57;2.47;;;;;;;;;;5036038;28;20052;-54
2021/03/12 08:08:46;;;;;;;11.25;2.30;;;;;;;;;;5034786;28;20443;-58
2021/03/12 08:11:36;;;;;;;14.30;2.50;;;;;;;;;;5034386;28;20162;-57
2021/03/12 08:14:08;;;;;;;10.13;1.80;;;;;;;;;;5034499;28;20068;-56
2021/03/12 08:16:34;;;;;;;5.88;2.20;;;;;;;;;;5034501;28;20045;-56
2021/03/12 08:19:18;;;;;;;9.85;1.98;;;;;;;;;;5034795;28;20047;-58
2021/03/12 08:21:44;;;;;;;9.07;1.70;;;;;;;;;;5033067;28;20069;-53
2021/03/12 08:24:28;;;;;;;6.80;1.98;;;;;;;;;;5034575;28;20045;-53
2021/03/12 08:26:55;;;;;;;15.02;2.17;;;;;;;;;;5035224;28;20079;-58
2021/03/12 08:29:30;;;;;;;7.90;2.30;;;;;;;;;;5035678;28;20045;-55
2021/03/12 08:31:57;;;;;;;10.35;2.60;;;;;;;;;;5037465;28;20049;-55
2021/03/12 08:34:42;;;;;;;9.25;2.30;;;;;;;;;;5035061;28;20037;-56
2021/03/12 08:37:26;;;;;;;10.02;2.15;;;;;;;;;;5034492;28;20875;-57
2021/03/12 08:40:15;;;;;;;9.75;1.92;;;;;;;;;;5034400;28;20739;-57
2021/03/12 08:42:55;;;;;;;11.43;2.10;;;;;;;;;;5027265;28;20451;-57
2021/03/12 08:45:33;;;;;;;6.22;1.80;;;;;;;;;;5034462;28;20521;-55
2021/03/12 08:48:03;;;;;;;6.32;2.08;;;;;;;;;;5034942;28;20037;-57
2021/03/12 08:50:29;;;;;;;6.88;2.03;;;;;;;;;;5035214;28;20338;-53
2021/03/12 08:52:55;;;;;;;7.30;1.95;;;;;;;;;;5034767;28;21022;-56
2021/03/12 08:55:21;;;;;;;8.70;1.95;;;;;;;;;;5035467;28;20041;-55
2021/03/12 08:57:47;;;;;;;9.30;2.08;;;;;;;;;;5035462;28;20041;-56
2021/03/12 09:00:14;;;;;;;10.80;2.83;;;;;;;;;;5038464;28;20544;-56
2021/03/12 09:02:40;;;;;;;15.30;2.08;;;;;;;;;;5032509;28;20076;-53
2021/03/12 09:05:25;;;;;;;5.85;1.90;;;;;;;;;;5034806;28;20052;-56
2021/03/12 09:07:52;;;;;;;9.85;1.95;;;;;;;;;;5031535;28;20128;-56
2021/03/12 09:10:28;;;;;;;8.57;2.33;;;;;;;;;;5034609;28;20025;-55
2021/03/12 09:12:54;;;;;;;10.77;2.20;;;;;;;;;;5033819;28;20184;-54
2021/03/12 09:15:26;;;;;;;7.68;2.10;;;;;;;;;;5033310;28;20045;-50
2021/03/12 09:17:59;;;;;;;14.25;2.55;;;;;;;;;;5033067;28;20041;-56
2021/03/12 09:20:26;;;;;;;16.02;2.63;;;;;;;;;;5032124;28;20059;-55
2021/03/12 09:22:52;;;;;;;9.30;1.88;;;;;;;;;;5034167;28;20119;-56
2021/03/12 09:25:28;;;;;;;18.02;2.65;;;;;;;;;;5033605;28;20091;-55
2021/03/12 09:28:02;;;;;;;17.42;2.55;;;;;;;;;;5033384;28;20076;-55
2021/03/12 09:30:30;;;;;;;11.77;3.25;;;;;;;;;;5033546;28;20040;-53
2021/03/12 09:32:56;;;;;;;6.55;1.75;;;;;;;;;;5032114;28;20064;-55
2021/03/12 09:35:24;;;;;;;11.00;1.70;;;;;;;;;;5033216;28;20517;-57
2021/03/12 09:37:52;;;;;;;9.52;1.50;;;;;;;;;;5033469;28;20052;-54
2021/03/12 09:40:27;;;;;;;13.32;1.65;;;;;;;;;;5032599;28;20045;-56
2021/03/12 09:42:53;;;;;;;5.22;1.02;;;;;;;;;;5032430;28;20060;-54
2021/03/12 09:45:20;;;;;;;8.82;2.08;;;;;;;;;;5032514;28;20929;-56
2021/03/12 09:47:50;;;;;;;10.40;1.90;;;;;;;;;;5034270;28;20063;-55
2021/03/12 09:50:22;;;;;;;8.77;2.97;;;;;;;;;;5033606;28;20052;-57
2021/03/12 09:52:48;;;;;;;8.82;1.50;;;;;;;;;;5032367;28;20242;-54
2021/03/12 09:55:15;;;;;;;10.82;2.30;;;;;;;;;;5035180;28;21990;-55
2021/03/12 09:57:41;;;;;;;12.73;1.80;;;;;;;;;;5032792;28;20497;-57
2021/03/12 10:00:08;;;;;;;11.25;2.25;;;;;;;;;;5034423;28;20501;-55
2021/03/12 10:02:33;;;;;;;5.78;1.20;;;;;;;;;;5031285;28;20084;-56
2021/03/12 10:05:00;;;;;;;12.30;1.50;;;;;;;;;;5033230;28;20133;-56
2021/03/12 10:07:36;;;;;;;10.45;1.30;;;;;;;;;;5030592;28;20568;-56
2021/03/12 10:10:11;;;;;;;5.05;0.82;;;;;;;;;;5032710;28;20473;-55
2021/03/12 10:12:39;;;;;;;2.90;0.80;;;;;;;;;;5032976;28;20821;-54
2021/03/12 10:15:27;;;;;;;3.00;0.70;;;;;;;;;;5033219;28;20043;-56
2021/03/12 10:17:54;;;;;;;2.30;0.50;;;;;;;;;;5031410;28;20061;-56
2021/03/12 10:20:30;;;;;;;4.88;0.70;;;;;;;;;;5032135;28;20678;-56
2021/03/12 10:23:00;;;;;;;3.05;0.68;;;;;;;;;;5033124;28;20063;-56
2021/03/12 10:25:33;;;;;;;3.67;0.55;;;;;;;;;;5031783;28;20068;-55
2021/03/12 10:28:15;;;;;;;1.45;0.60;;;;;;;;;;5032288;28;20678;-56
2021/03/12 10:30:48;;;;;;;2.13;0.63;;;;;;;;;;5031903;28;20047;-54
2021/03/12 10:33:14;;;;;;;;;;;;;;;;;;5034267;28;20557;-57
2021/03/12 10:35:41;;;;;;;1.58;0.47;;;;;;;;;;5037128;28;19917;-56
2021/03/12 10:38:07;;;;;;;3.05;0.60;;;;;;;;;;5036362;28;20041;-57
2021/03/12 10:40:37;;;;;;;7.65;0.85;;;;;;;;;;5036324;28;20041;-56
2021/03/12 10:43:17;;;;;;;3.70;0.65;;;;;;;;;;5037867;28;20053;-55
2021/03/12 10:45:54;;;;;;;4.13;0.60;;;;;;;;;;5034021;28;20048;-57
2021/03/12 10:48:22;;;;;;;3.17;0.60;;;;;;;;;;5029843;28;20107;-56
2021/03/12 10:50:52;;;;;;;2.85;0.50;;;;;;;;;;5037063;28;20045;-57
2021/03/12 10:53:18;;;;;;;3.20;0.70;;;;;;;;;;5037226;28;20049;-57
2021/03/12 10:55:46;;;;;;;2.55;0.60;;;;;;;;;;5036856;28;20122;-56
2021/03/12 10:58:28;;;;;;;2.95;0.80;;;;;;;;;;5036468;28;20049;-55
2021/03/12 11:01:08;;;;;;;1.77;0.60;;;;;;;;;;5035713;28;20110;-52
2021/03/12 11:03:34;;;;;;;3.42;0.70;;;;;;;;;;5035766;28;20118;-55
2021/03/12 11:06:00;;;;;;;1.90;0.60;;;;;;;;;;5035836;28;20045;-56
2021/03/12 11:08:27;;;;;;;1.48;0.47;;;;;;;;;;5034295;28;20083;-57
2021/03/12 11:10:56;;;;;;;4.30;0.70;;;;;;;;;;5036673;28;20577;-55
2021/03/12 11:13:23;;;;;;;2.95;0.60;;;;;;;;;;5029054;28;20044;-56
2021/03/12 11:15:49;;;;;;;3.88;0.68;;;;;;;;;;5036933;28;20034;-55
2021/03/12 11:18:15;;;;;;;6.80;0.70;;;;;;;;;;5036115;28;20580;-57
2021/03/12 11:20:41;;;;;;;5.90;0.82;;;;;;;;;;5036730;28;20501;-56
2021/03/12 11:23:08;;;;;;;1.75;0.60;;;;;;;;;;5037207;28;20056;-56
2021/03/12 11:25:34;;;;;;;5.03;0.88;;;;;;;;;;5035338;28;20033;-55
2021/03/12 11:28:00;;;;;;;4.32;0.90;;;;;;;;;;5034071;28;20097;-57
2021/03/12 11:30:26;;;;;;;6.00;0.80;;;;;;;;;;5035608;28;20041;-56
2021/03/12 11:32:52;;;;;;;7.22;1.10;;;;;;;;;;5036099;28;20066;-56
2021/03/12 11:35:18;;;;;;;6.60;1.00;;;;;;;;;;5036664;28;20125;-56
2021/03/12 11:37:44;;;;;;;3.25;0.60;;;;;;;;;;5033820;28;20116;-55
2021/03/12 11:40:11;;;;;;;1.85;0.52;;;;;;;;;;5035831;28;20042;-53
2021/03/12 11:42:41;;;;;;;2.55;0.65;;;;;;;;;;5034652;28;20095;-53
2021/03/12 11:45:08;;;;;;;8.60;1.05;;;;;;;;;;5035507;28;20033;-57
2021/03/12 11:47:34;;;;;;;4.22;0.80;;;;;;;;;;5031954;28;20652;-56
2021/03/12 11:50:01;;;;;;;5.40;0.63;;;;;;;;;;5036411;28;20559;-57
2021/03/12 11:52:27;;;;;;;3.75;0.70;;;;;;;;;;5035584;28;20045;-56
2021/03/12 11:54:53;;;;;;;2.25;0.60;;;;;;;;;;5036842;28;20048;-57
2021/03/12 11:57:19;;;;;;;6.20;0.70;;;;;;;;;;5033486;28;20128;-57
2021/03/12 11:59:45;;;;;;;6.32;0.73;;;;;;;;;;5035101;28;20124;-55
2021/03/12 12:02:11;;;;;;;11.82;0.88;;;;;;;;;;5035196;28;20041;-54
2021/03/12 12:04:37;;;;;;;5.65;0.80;;;;;;;;;;5033729;28;20124;-57
2021/03/12 12:07:03;;;;;;;2.42;0.63;;;;;;;;;;5035083;28;20060;-56
2021/03/12 12:09:29;;;;;;;3.78;0.70;;;;;;;;;;5034615;28;20620;-56
2021/03/12 12:11:55;;;;;;;5.32;0.80;;;;;;;;;;5035043;28;20131;-55
2021/03/12 12:14:21;;;;;;;4.75;0.80;;;;;;;;;;5034562;28;20121;-57
2021/03/12 12:16:48;;;;;;;8.00;1.00;;;;;;;;;;5036336;28;20490;-54
2021/03/12 12:19:16;;;;;;;7.57;0.80;;;;;;;;;;5033730;28;20120;-55
2021/03/12 12:21:42;;;;;;;3.78;0.70;;;;;;;;;;5035070;28;20079;-57
2021/03/12 12:24:09;;;;;;;4.57;0.65;;;;;;;;;;5034974;28;20044;-57
2021/03/12 12:26:35;;;;;;;4.07;0.80;;;;;;;;;;5032521;28;20055;-57
2021/03/12 12:29:01;;;;;;;3.35;0.70;;;;;;;;;;5035928;28;20029;-58
2021/03/12 12:31:27;;;;;;;5.18;0.70;;;;;;;;;;5032780;28;20036;-55
2021/03/12 12:33:53;;;;;;;3.70;1.40;;;;;;;;;;5034996;28;20044;-58
2021/03/12 12:36:19;;;;;;;1.70;0.60;;;;;;;;;;5032879;28;20037;-58
2021/03/12 12:38:45;;;;;;;2.90;0.70;;;;;;;;;;5035581;28;20037;-57
2021/03/12 12:41:12;;;;;;;5.63;0.70;;;;;;;;;;5036544;28;20094;-58
2021/03/12 12:43:38;;;;;;;4.35;0.93;;;;;;;;;;5035867;28;20596;-56
2021/03/12 12:46:04;;;;;;;4.15;0.80;;;;;;;;;;5035676;28;20063;-57
2021/03/12 12:48:29;;;;;;;4.45;0.70;;;;;;;;;;5035600;28;20515;-57
2021/03/12 12:50:55;;;;;;;2.88;0.63;;;;;;;;;;5036628;28;20362;-57
2021/03/12 12:53:22;;;;;;;2.78;0.60;;;;;;;;;;5034030;28;20120;-58
2021/03/12 12:55:48;;;;;;;3.13;1.05;;;;;;;;;;5035879;28;22111;-53
2021/03/12 12:58:13;;;;;;;2.70;0.77;;;;;;;;;;5037705;28;20041;-56
2021/03/12 13:00:39;;;;;;;6.32;0.80;;;;;;;;;;5035466;28;20432;-58
2021/03/12 13:03:06;;;;;;;2.83;0.63;;;;;;;;;;5034703;28;20045;-57
2021/03/12 13:05:32;;;;;;;3.60;0.60;;;;;;;;;;5033609;28;20037;-58
2021/03/12 13:07:58;;;;;;;5.50;0.80;;;;;;;;;;5032860;28;20091;-58
2021/03/12 13:10:25;;;;;;;3.85;0.90;;;;;;;;;;5034585;28;20094;-58
2021/03/12 13:12:50;;;;;;;20.02;1.55;;;;;;;;;;5028331;28;20508;-55
2021/03/12 13:15:16;;;;;;;11.80;1.60;;;;;;;;;;5034948;28;20044;-55
2021/03/12 13:17:42;;;;;;;6.93;1.30;;;;;;;;;;5032615;28;20056;-58
2021/03/12 13:20:10;;;;;;;7.50;1.33;;;;;;;;;;5034106;28;20104;-57
2021/03/12 13:22:38;;;;;;;6.15;1.10;;;;;;;;;;5033462;28;20048;-57
2021/03/12 13:25:05;;;;;;;5.50;0.98;;;;;;;;;;5034483;28;20458;-57
2021/03/12 13:27:35;;;;;;;4.45;0.90;;;;;;;;;;5032806;28;20190;-56
2021/03/12 13:30:10;;;;;;;6.95;1.00;;;;;;;;;;5035586;28;20036;-56
2021/03/12 13:32:37;;;;;;;5.60;0.85;;;;;;;;;;5033214;28;20040;-55
2021/03/12 13:35:03;;;;;;;7.07;0.90;;;;;;;;;;5044984;28;20588;-55
2021/03/12 13:37:29;;;;;;;6.60;1.13;;;;;;;;;;5031970;28;20083;-55
2021/03/12 13:39:55;;;;;;;6.72;0.85;;;;;;;;;;5032391;28;20581;-56
2021/03/12 13:42:22;;;;;;;6.93;0.80;;;;;;;;;;5035307;28;20114;-55
2021/03/12 13:44:48;;;;;;;8.05;1.05;;;;;;;;;;5035017;28;20043;-56
2021/03/12 13:47:14;;;;;;;4.55;1.10;;;;;;;;;;5035006;28;20037;-56
2021/03/12 13:49:39;;;;;;;3.50;0.77;;;;;;;;;;5034592;28;20520;-55
2021/03/12 13:52:05;;;;;;;11.93;1.13;;;;;;;;;;5034906;28;20029;-56
2021/03/12 13:54:33;;;;;;;4.65;0.90;;;;;;;;;;5033732;28;20570;-57
2021/03/12 13:56:58;;;;;;;5.22;0.88;;;;;;;;;;5030855;28;20050;-55
2021/03/12 13:59:24;;;;;;;9.02;1.10;;;;;;;;;;5034273;28;20045;-55
2021/03/12 14:01:50;;;;;;;7.10;0.80;;;;;;;;;;5034516;28;20049;-54
2021/03/12 14:04:16;;;;;;;21.98;1.80;;;;;;;;;;5034678;28;20137;-55
2021/03/12 14:06:42;;;;;;;4.15;0.75;;;;;;;;;;5032901;28;20040;-56
2021/03/12 14:09:13;;;;;;;5.40;0.60;;;;;;;;;;5034658;28;20314;-57
2021/03/12 14:11:42;;;;;;;7.15;1.83;;;;;;;;;;5033998;28;20048;-57
2021/03/12 14:14:08;;;;;;;8.65;1.17;;;;;;;;;;5033874;28;20176;-57
2021/03/12 14:16:34;;;;;;;6.60;0.90;;;;;;;;;;5033636;28;20029;-57
2021/03/12 14:19:00;;;;;;;5.95;0.95;;;;;;;;;;5034066;28;20174;-56
2021/03/12 14:21:26;;;;;;;9.30;0.98;;;;;;;;;;5032713;28;20136;-55
2021/03/12 14:23:53;;;;;;;3.88;1.00;;;;;;;;;;5035162;28;20052;-56
2021/03/12 14:26:19;;;;;;;3.63;0.60;;;;;;;;;;5032342;28;20037;-56
2021/03/12 14:28:45;;;;;;;5.90;1.60;;;;;;;;;;5034451;28;20055;-57
2021/03/12 14:31:11;;;;;;;3.22;0.88;;;;;;;;;;5033591;28;20029;-57
2021/03/12 14:33:36;;;;;;;9.48;1.25;;;;;;;;;;5033729;28;20044;-56
2021/03/12 14:36:03;;;;;;;3.75;0.90;;;;;;;;;;5033602;28;20033;-56
2021/03/12 14:38:29;;;;;;;6.30;1.10;;;;;;;;;;5033698;28;20044;-57
2021/03/12 14:40:54;;;;;;;9.82;0.93;;;;;;;;;;5033811;28;20033;-57